Time;durP1;ratioP1;P1;durP2;ratioP2;P2;SDS_P1;SDS_P2;PMS_P1;PMS_P2;Temp;Humidity;BMP_temperature;BMP_pressure;BME280_temperature;BME280_humidity;BME280_pressure;Samples;Min_cycle;Max_cycle;Signal;HPM_P1;HPM_P2
2022/07/25 00:02:01;;;;;;;37.17;10.65;;;;;;;21.45;100.00;97824.84;5058710;28;20046;-61
2022/07/25 00:04:27;;;;;;;34.20;11.73;;;;;;;21.18;100.00;97825.41;5059244;28;20452;-60
2022/07/25 00:06:52;;;;;;;29.90;9.95;;;;;;;21.42;100.00;97816.28;5058486;28;20067;-61
2022/07/25 00:09:18;;;;;;;30.50;11.27;;;;;;;21.37;100.00;97814.03;5059896;28;20027;-62
2022/07/25 00:11:43;;;;;;;27.40;11.15;;;;;;;21.21;100.00;97814.56;5058259;28;20036;-61
2022/07/25 00:14:09;;;;;;;38.55;11.70;;;;;;;21.27;100.00;97819.31;5059243;28;20024;-63
2022/07/25 00:16:34;;;;;;;30.30;10.73;;;;;;;20.96;100.00;97816.66;5058741;28;20036;-61
2022/07/25 00:19:00;;;;;;;33.17;10.95;;;;;;;20.96;100.00;97806.06;5058338;28;20029;-61
2022/07/25 00:21:25;;;;;;;34.55;11.20;;;;;;;20.98;100.00;97804.13;5058313;28;20036;-61
2022/07/25 00:23:50;;;;;;;31.17;10.50;;;;;;;21.08;100.00;97811.28;5059566;28;20031;-61
2022/07/25 00:26:16;;;;;;;35.10;11.43;;;;;;;20.87;100.00;97816.63;5058586;28;20128;-61
2022/07/25 00:28:42;;;;;;;35.95;11.23;;;;;;;20.78;100.00;97818.25;5059118;28;20028;-60
2022/07/25 00:31:07;;;;;;;35.47;11.32;;;;;;;20.66;100.00;97820.16;5057997;28;20083;-61
2022/07/25 00:33:33;;;;;;;32.25;11.40;;;;;;;20.69;100.00;97813.75;5058753;28;20705;-61
2022/07/25 00:35:58;;;;;;;34.92;11.32;;;;;;;20.85;100.00;97814.09;5058771;28;20123;-60
2022/07/25 00:38:23;;;;;;;35.53;12.05;;;;;;;20.51;100.00;97816.13;5058266;28;20028;-60
2022/07/25 00:40:49;;;;;;;32.55;11.63;;;;;;;20.45;100.00;97817.47;5057367;28;20059;-61
2022/07/25 00:43:14;;;;;;;31.48;11.25;;;;;;;20.68;100.00;97815.56;5058845;28;20427;-61
2022/07/25 00:45:40;;;;;;;38.88;12.13;;;;;;;20.63;100.00;97808.97;5058556;28;20053;-62
2022/07/25 00:48:07;;;;;;;29.75;10.98;;;;;;;20.39;100.00;97810.88;5059145;28;20534;-60
2022/07/25 00:50:32;;;;;;;34.50;11.70;;;;;;;20.34;100.00;97809.59;5056960;28;20028;-61
2022/07/25 00:52:58;;;;;;;32.90;11.40;;;;;;;20.68;100.00;97809.44;5058892;28;20086;-61
2022/07/25 00:55:24;;;;;;;35.25;11.63;;;;;;;20.58;100.00;97810.16;5058287;28;20056;-61
2022/07/25 00:57:49;;;;;;;38.50;11.88;;;;;;;20.30;100.00;97810.81;5058031;28;20031;-61
2022/07/25 01:00:16;;;;;;;41.35;11.82;;;;;;;20.41;100.00;97808.09;5056606;28;20036;-61
2022/07/25 01:02:42;;;;;;;37.22;11.90;;;;;;;20.04;100.00;97813.84;5058063;28;20031;-61
2022/07/25 01:05:08;;;;;;;34.63;11.52;;;;;;;20.27;100.00;97814.56;5057478;28;20036;-61
2022/07/25 01:07:36;;;;;;;36.40;11.80;;;;;;;20.18;100.00;97800.28;5058370;28;20445;-61
2022/07/25 01:10:01;;;;;;;47.20;13.05;;;;;;;20.29;100.00;97806.50;5057316;28;20989;-63
2022/07/25 01:12:27;;;;;;;36.83;12.18;;;;;;;20.32;100.00;97806.25;5058760;28;20040;-61
2022/07/25 01:14:52;;;;;;;41.08;12.35;;;;;;;20.23;100.00;97803.38;5058490;28;20029;-61
2022/07/25 01:17:17;;;;;;;38.13;11.55;;;;;;;20.05;100.00;97809.38;5057967;28;20075;-61
2022/07/25 01:19:45;;;;;;;32.58;11.73;;;;;;;20.17;100.00;97798.59;5059131;28;20029;-61
2022/07/25 01:22:10;;;;;;;38.65;11.45;;;;;;;20.05;100.00;97804.06;5057016;28;20664;-60
2022/07/25 01:24:37;;;;;;;34.25;11.25;;;;;;;20.06;100.00;97795.19;5060225;28;20031;-61
2022/07/25 01:27:03;;;;;;;36.92;11.60;;;;;;;20.12;100.00;97805.25;5061590;28;20045;-61
2022/07/25 01:29:28;;;;;;;32.33;12.00;;;;;;;19.95;100.00;97806.66;5063199;28;20024;-62
2022/07/25 01:31:54;;;;;;;41.80;12.23;;;;;;;19.94;100.00;97797.03;5061898;28;20055;-61
2022/07/25 01:34:19;;;;;;;36.45;11.90;;;;;;;19.75;100.00;97793.25;5062317;28;20082;-61
2022/07/25 01:36:44;;;;;;;37.03;11.43;;;;;;;19.91;100.00;97782.25;5060693;28;20051;-63
2022/07/25 01:39:10;;;;;;;41.97;12.65;;;;;;;19.70;100.00;97786.63;5060640;28;20035;-61
2022/07/25 01:41:36;;;;;;;29.92;11.20;;;;;;;19.81;100.00;97776.03;5061087;28;20052;-61
2022/07/25 01:44:01;;;;;;;32.38;11.73;;;;;;;20.05;100.00;97774.97;5062175;28;20769;-61
2022/07/25 01:46:26;;;;;;;33.22;11.98;;;;;;;19.79;100.00;97777.97;5061241;28;20063;-60
2022/07/25 01:48:52;;;;;;;33.83;11.68;;;;;;;19.73;100.00;97774.00;5061590;28;20071;-61
2022/07/25 01:51:17;;;;;;;38.80;12.23;;;;;;;19.82;100.00;97775.06;5060859;28;20046;-61
2022/07/25 01:53:43;;;;;;;34.65;11.25;;;;;;;20.04;100.00;97771.47;5062954;28;20525;-61
2022/07/25 01:56:08;;;;;;;32.28;10.73;;;;;;;19.96;100.00;97773.91;5062430;28;20044;-61
2022/07/25 01:58:33;;;;;;;40.22;11.77;;;;;;;19.99;100.00;97768.38;5060670;28;20596;-61
2022/07/25 02:00:59;;;;;;;38.08;12.40;;;;;;;19.71;100.00;97770.63;5060862;28;20105;-61
2022/07/25 02:03:30;;;;;;;36.03;12.35;;;;;;;19.89;100.00;97768.31;5062136;28;20505;-62
2022/07/25 02:06:01;;;;;;;31.75;11.32;;;;;;;20.02;100.00;97774.25;5062022;28;20040;-61
2022/07/25 02:08:27;;;;;;;43.45;11.93;;;;;;;19.99;100.00;97768.38;5062785;28;20012;-62
2022/07/25 02:10:53;;;;;;;37.17;11.73;;;;;;;19.55;100.00;97767.56;5061550;28;20049;-61
2022/07/25 02:13:19;;;;;;;35.88;11.88;;;;;;;19.32;100.00;97770.25;5062191;28;20073;-62
2022/07/25 02:15:44;;;;;;;29.10;10.75;;;;;;;19.24;100.00;97768.25;5060600;28;20048;-63
2022/07/25 02:18:09;;;;;;;40.17;12.02;;;;;;;19.69;100.00;97766.44;5061381;28;20028;-61
2022/07/25 02:20:35;;;;;;;36.92;12.00;;;;;;;19.32;100.00;97764.97;5060372;28;20444;-61
2022/07/25 02:23:01;;;;;;;39.03;12.05;;;;;;;19.58;100.00;97762.03;5061542;28;20797;-60
2022/07/25 02:25:26;;;;;;;41.55;12.20;;;;;;;19.24;100.00;97767.38;5061924;28;20089;-60
2022/07/25 02:27:51;;;;;;;42.13;11.88;;;;;;;19.73;100.00;97757.31;5061736;28;20048;-59
2022/07/25 02:30:17;;;;;;;41.80;12.80;;;;;;;19.70;100.00;97761.00;5060326;28;20037;-60
2022/07/25 02:32:42;;;;;;;36.78;11.23;;;;;;;19.64;100.00;97761.50;5061357;28;20071;-60
2022/07/25 02:35:08;;;;;;;32.60;11.32;;;;;;;19.48;100.00;97763.72;5060970;28;20033;-60
2022/07/25 02:37:34;;;;;;;35.97;11.00;;;;;;;19.71;100.00;97761.84;5059864;28;20083;-60
2022/07/25 02:39:59;;;;;;;49.70;13.13;;;;;;;19.51;100.00;97763.47;5060868;28;20563;-61
2022/07/25 02:42:24;;;;;;;34.90;11.93;;;;;;;19.34;100.00;97763.03;5060331;28;20029;-60
2022/07/25 02:44:50;;;;;;;34.75;11.68;;;;;;;19.52;100.00;97760.72;5060875;28;20036;-61
2022/07/25 02:47:15;;;;;;;40.67;12.52;;;;;;;19.25;100.00;97767.25;5059729;28;20075;-60
2022/07/25 02:49:40;;;;;;;38.20;11.52;;;;;;;19.31;100.00;97763.28;5043633;28;20481;-61
2022/07/25 02:52:06;;;;;;;41.00;11.82;;;;;;;19.13;100.00;97770.03;5059604;28;20160;-60
2022/07/25 02:54:31;;;;;;;41.78;12.50;;;;;;;19.11;100.00;97771.97;5060952;28;20207;-59
2022/07/25 02:56:56;;;;;;;39.90;12.38;;;;;;;19.03;100.00;97783.16;5060087;28;20040;-61
2022/07/25 02:59:22;;;;;;;32.95;12.05;;;;;;;18.88;100.00;97780.75;5060840;28;20666;-60
2022/07/25 03:01:48;;;;;;;34.20;10.80;;;;;;;19.22;100.00;97779.88;5060490;28;20499;-60
2022/07/25 03:04:13;;;;;;;35.53;11.52;;;;;;;19.18;100.00;97771.34;5062244;28;20035;-60
2022/07/25 03:06:38;;;;;;;40.22;11.95;;;;;;;19.14;100.00;97777.03;5060113;28;20045;-60
2022/07/25 03:09:04;;;;;;;38.08;11.90;;;;;;;19.21;100.00;97775.56;5060170;28;20345;-60
2022/07/25 03:11:29;;;;;;;36.75;12.13;;;;;;;18.88;100.00;97779.91;5058742;28;20473;-61
2022/07/25 03:13:54;;;;;;;35.75;11.75;;;;;;;19.00;100.00;97773.66;5060530;28;20031;-61
2022/07/25 03:16:20;;;;;;;37.83;12.27;;;;;;;19.15;100.00;97778.69;5059489;28;20123;-62
2022/07/25 03:18:45;;;;;;;39.15;11.80;;;;;;;19.11;100.00;97785.19;5059544;28;20054;-60
2022/07/25 03:21:11;;;;;;;38.38;12.77;;;;;;;19.06;100.00;97781.13;5059012;28;20041;-61
2022/07/25 03:23:36;;;;;;;36.28;12.05;;;;;;;18.69;100.00;97781.31;5059318;28;20025;-62
2022/07/25 03:26:02;;;;;;;42.03;12.48;;;;;;;18.78;100.00;97779.75;5058900;28;20033;-60
2022/07/25 03:28:27;;;;;;;38.80;12.55;;;;;;;18.54;100.00;97790.41;5058995;28;20119;-61
2022/07/25 03:30:53;;;;;;;32.42;11.05;;;;;;;18.86;100.00;97779.22;5058450;28;20043;-60
2022/07/25 03:33:18;;;;;;;38.30;12.70;;;;;;;18.81;100.00;97782.19;5059898;28;20027;-60
2022/07/25 03:35:44;;;;;;;44.45;13.63;;;;;;;18.64;100.00;97770.28;5058418;28;20036;-61
2022/07/25 03:38:09;;;;;;;36.95;11.75;;;;;;;19.19;100.00;97769.56;5059794;28;20025;-60
2022/07/25 03:40:35;;;;;;;42.53;13.07;;;;;;;18.69;100.00;97773.41;5058014;28;20128;-61
2022/07/25 03:43:01;;;;;;;41.22;12.82;;;;;;;18.85;100.00;97761.66;5059824;28;20024;-62
2022/07/25 03:45:26;;;;;;;38.83;13.15;;;;;;;18.64;100.00;97764.16;5058866;28;20033;-61
2022/07/25 03:47:51;;;;;;;53.42;13.98;;;;;;;18.67;100.00;97756.84;5055540;28;20021;-60
2022/07/25 03:50:17;;;;;;;46.47;12.82;;;;;;;18.53;100.00;97767.63;5056811;28;20036;-60
2022/07/25 03:52:42;;;;;;;36.40;11.43;;;;;;;19.15;100.00;97741.69;5059029;28;20512;-61
2022/07/25 03:55:09;;;;;;;34.65;12.07;;;;;;;18.97;100.00;97755.41;5058651;28;20090;-60
2022/07/25 03:57:35;;;;;;;33.05;10.95;;;;;;;19.12;100.00;97752.50;5058978;28;20017;-60
2022/07/25 04:00:02;;;;;;;53.08;13.82;;;;;;;18.83;100.00;97747.72;5058525;28;20031;-60
2022/07/25 04:02:27;;;;;;;33.72;10.93;;;;;;;18.95;100.00;97754.69;5058695;28;20590;-59
2022/07/25 04:04:52;;;;;;;40.88;12.90;;;;;;;19.00;100.00;97744.56;5059408;28;20581;-59
2022/07/25 04:07:18;;;;;;;43.05;13.38;;;;;;;18.77;100.00;97743.75;5058366;28;20048;-59
2022/07/25 04:09:43;;;;;;;37.60;12.18;;;;;;;18.88;100.00;97742.94;5058660;28;20028;-62
2022/07/25 04:12:09;;;;;;;42.20;13.10;;;;;;;19.17;100.00;97739.75;5057303;28;20068;-60
2022/07/25 04:14:34;;;;;;;30.55;11.50;;;;;;;18.84;100.00;97738.84;5058582;28;20051;-63
2022/07/25 04:17:00;;;;;;;33.65;12.02;;;;;;;19.23;100.00;97739.28;5058686;28;20033;-60
2022/07/25 04:19:25;;;;;;;38.55;12.95;;;;;;;18.73;100.00;97744.09;5058755;28;20024;-59
2022/07/25 04:21:50;;;;;;;38.35;12.52;;;;;;;19.13;100.00;97735.69;5057791;28;20037;-59
2022/07/25 04:24:16;;;;;;;40.75;12.25;;;;;;;19.22;100.00;97732.28;5058496;28;20577;-59
2022/07/25 04:26:41;;;;;;;32.20;12.02;;;;;;;18.97;100.00;97736.91;5058246;28;20048;-59
2022/07/25 04:29:06;;;;;;;31.95;11.95;;;;;;;19.43;100.00;97730.56;5058286;28;20013;-61
2022/07/25 04:31:32;;;;;;;33.38;11.38;;;;;;;19.79;100.00;97717.09;5057519;28;21245;-60
2022/07/25 04:33:57;;;;;;;35.88;11.85;;;;;;;19.82;100.00;97714.19;5058257;28;20032;-60
2022/07/25 04:36:23;;;;;;;39.70;12.93;;;;;;;19.86;100.00;97709.50;5058374;28;20056;-60
2022/07/25 04:38:49;;;;;;;34.25;11.65;;;;;;;20.74;100.00;97705.53;5056485;28;20080;-59
2022/07/25 04:41:15;;;;;;;36.35;11.48;;;;;;;20.35;100.00;97705.34;5057712;28;20149;-59
2022/07/25 04:43:40;;;;;;;44.20;12.43;;;;;;;20.09;100.00;97700.47;5058632;28;20463;-61
2022/07/25 04:46:06;;;;;;;32.53;11.90;;;;;;;20.61;100.00;97700.47;5058374;28;20109;-60
2022/07/25 04:48:31;;;;;;;33.67;11.50;;;;;;;20.83;100.00;97704.72;5058056;28;20921;-60
2022/07/25 04:50:56;;;;;;;29.80;10.55;;;;;;;20.84;100.00;97703.75;5056937;28;20048;-61
2022/07/25 04:53:22;;;;;;;33.67;11.63;;;;;;;20.65;100.00;97701.03;5058384;28;20036;-61
2022/07/25 04:55:47;;;;;;;36.78;11.73;;;;;;;20.97;100.00;97693.75;5057673;28;20063;-61
2022/07/25 04:58:12;;;;;;;33.78;11.65;;;;;;;20.89;100.00;97698.88;5057282;28;20020;-61
2022/07/25 05:00:38;;;;;;;32.45;11.55;;;;;;;20.79;100.00;97698.03;5057276;28;20052;-61
2022/07/25 05:03:03;;;;;;;31.52;10.73;;;;;;;21.36;100.00;97696.47;5058647;28;20568;-60
2022/07/25 05:05:28;;;;;;;30.98;10.60;;;;;;;21.63;100.00;97694.13;5058068;28;20196;-61
2022/07/25 05:07:58;;;;;;;38.67;11.02;;;;;;;21.87;100.00;97691.88;5057025;28;20024;-61
2022/07/25 05:10:25;;;;;;;33.63;10.65;;;;;;;21.80;100.00;97692.56;5057501;28;20086;-61
2022/07/25 05:12:50;;;;;;;32.22;11.73;;;;;;;21.63;100.00;97696.78;5058142;28;20127;-61
2022/07/25 05:15:15;;;;;;;28.15;10.65;;;;;;;21.40;100.00;97682.94;5058177;28;20123;-61
2022/07/25 05:17:41;;;;;;;30.90;10.90;;;;;;;22.33;100.00;97673.47;5057362;28;20112;-60
2022/07/25 05:20:07;;;;;;;49.95;12.65;;;;;;;22.73;100.00;97666.19;5057121;28;20440;-61
2022/07/25 05:22:32;;;;;;;35.03;11.65;;;;;;;22.58;100.00;97663.19;5058264;28;20494;-62
2022/07/25 05:25:01;;;;;;;31.80;11.30;;;;;;;22.65;100.00;97664.28;5058233;28;20055;-62
2022/07/25 05:27:26;;;;;;;33.95;11.15;;;;;;;22.18;100.00;97659.78;5056766;28;20082;-62
2022/07/25 05:29:52;;;;;;;30.67;10.50;;;;;;;22.69;100.00;97652.38;5058114;28;20028;-61
2022/07/25 05:32:17;;;;;;;31.08;10.13;;;;;;;22.79;100.00;97653.16;5057461;28;20125;-61
2022/07/25 05:34:42;;;;;;;29.35;9.98;;;;;;;22.90;100.00;97655.59;5058050;28;20029;-61
2022/07/25 05:37:08;;;;;;;42.55;12.02;;;;;;;23.20;100.00;97658.13;5056995;28;20601;-62
2022/07/25 05:39:33;;;;;;;25.90;9.93;;;;;;;23.94;100.00;97648.94;5058313;28;20434;-61
2022/07/25 05:41:59;;;;;;;29.85;10.63;;;;;;;24.38;100.00;97651.53;5057089;28;20577;-61
2022/07/25 05:44:24;;;;;;;34.70;10.63;;;;;;;24.73;100.00;97652.38;5057909;28;20031;-62
2022/07/25 05:46:49;;;;;;;26.00;9.70;;;;;;;25.62;100.00;97649.25;5058103;28;20041;-61
2022/07/25 05:49:15;;;;;;;28.35;9.40;;;;;;;28.11;99.16;97647.81;5057808;28;20474;-62
2022/07/25 05:51:40;;;;;;;24.10;8.80;;;;;;;28.48;78.16;97654.13;5056894;28;20106;-61
2022/07/25 05:54:05;;;;;;;27.42;9.15;;;;;;;30.38;66.20;97644.09;5057815;28;20052;-62
2022/07/25 05:56:31;;;;;;;28.58;8.95;;;;;;;31.74;58.74;97644.16;5057307;28;20123;-60
2022/07/25 05:58:56;;;;;;;25.60;7.82;;;;;;;33.19;49.21;97648.66;5057975;28;20043;-60
2022/07/25 06:01:21;;;;;;;23.23;7.50;;;;;;;33.69;46.43;97645.22;5056769;28;20033;-61
2022/07/25 06:03:47;;;;;;;17.83;7.18;;;;;;;35.28;42.95;97639.22;5057908;28;20024;-61
2022/07/25 06:06:12;;;;;;;21.80;7.00;;;;;;;34.57;42.49;97638.78;5057323;28;20047;-60
2022/07/25 06:08:38;;;;;;;21.27;7.05;;;;;;;34.31;42.51;97635.34;5057390;28;20036;-61
2022/07/25 06:11:06;;;;;;;19.20;6.85;;;;;;;35.56;40.21;97635.03;5059550;28;20052;-61
2022/07/25 06:13:32;;;;;;;21.73;7.13;;;;;;;36.36;39.78;97631.00;5061050;28;20059;-61
2022/07/25 06:15:58;;;;;;;15.15;6.75;;;;;;;33.41;42.67;97627.53;5061171;28;20532;-61
2022/07/25 06:18:24;;;;;;;16.75;6.85;;;;;;;36.30;38.57;97621.09;5061051;28;20561;-63
2022/07/25 06:20:50;;;;;;;22.50;6.60;;;;;;;35.62;38.65;97634.94;5061163;28;20040;-64
2022/07/25 06:23:16;;;;;;;17.35;6.20;;;;;;;36.35;37.68;97632.06;5061685;28;20027;-63
2022/07/25 06:25:41;;;;;;;17.13;6.70;;;;;;;36.38;37.58;97631.63;5061544;28;20035;-61
2022/07/25 06:28:07;;;;;;;13.60;6.30;;;;;;;36.77;37.02;97635.44;5061294;28;20022;-61
2022/07/25 06:30:33;;;;;;;18.30;6.72;;;;;;;36.83;37.10;97625.50;5060396;28;20067;-62
2022/07/25 06:32:58;;;;;;;14.23;6.13;;;;;;;37.35;35.43;97622.72;5061566;28;20112;-61
2022/07/25 06:35:24;;;;;;;15.93;6.30;;;;;;;36.63;36.47;97625.88;5059089;28;20040;-62
2022/07/25 06:37:49;;;;;;;15.52;6.53;;;;;;;34.81;39.25;97626.25;5058430;28;20568;-61
2022/07/25 06:40:14;;;;;;;22.85;7.13;;;;;;;37.73;35.49;97633.97;5059376;28;20028;-62
2022/07/25 06:42:44;;;;;;;13.95;5.93;;;;;;;39.57;32.67;97621.94;5059884;28;20052;-62
2022/07/25 06:45:11;;;;;;;16.55;6.30;;;;;;;37.59;35.03;97617.16;5060338;28;20935;-62
2022/07/25 06:47:37;;;;;;;14.52;5.93;;;;;;;40.61;30.97;97614.19;5060526;28;20457;-62
2022/07/25 06:50:07;;;;;;;19.58;7.07;;;;;;;40.20;31.30;97615.84;5060028;28;20082;-61
2022/07/25 06:52:33;;;;;;;14.55;6.25;;;;;;;39.94;31.18;97618.44;5059774;28;20068;-61
2022/07/25 06:54:59;;;;;;;18.77;6.35;;;;;;;41.43;29.42;97621.81;5059902;28;20063;-63
2022/07/25 06:57:24;;;;;;;13.60;6.13;;;;;;;39.46;31.07;97617.47;5058129;28;20395;-61
2022/07/25 06:59:50;;;;;;;13.68;6.07;;;;;;;37.49;33.41;97611.53;5060208;28;20798;-62
2022/07/25 07:02:15;;;;;;;15.98;6.10;;;;;;;42.57;27.77;97617.91;5059907;28;20056;-62
2022/07/25 07:04:41;;;;;;;11.48;5.50;;;;;;;37.62;33.94;97605.78;5060433;28;20024;-63
2022/07/25 07:07:06;;;;;;;12.40;5.78;;;;;;;39.82;30.24;97601.41;5059551;28;20048;-60
2022/07/25 07:09:32;;;;;;;12.95;6.00;;;;;;;41.64;28.12;97605.47;5060387;28;20020;-61
2022/07/25 07:11:57;;;;;;;12.93;5.70;;;;;;;37.72;32.08;97603.25;5059567;28;20150;-63
2022/07/25 07:14:23;;;;;;;14.57;5.65;;;;;;;37.45;31.85;97599.50;5060033;28;20027;-61
2022/07/25 07:16:48;;;;;;;12.13;5.75;;;;;;;38.59;31.21;97591.97;5060567;28;20045;-61
2022/07/25 07:19:13;;;;;;;11.15;5.63;;;;;;;37.79;31.96;97593.00;5060181;28;20028;-61
2022/07/25 07:21:40;;;;;;;14.23;5.20;;;;;;;40.67;29.24;97587.69;5058368;28;20058;-61
2022/07/25 07:24:06;;;;;;;12.77;4.95;;;;;;;42.16;27.02;97591.44;5060171;28;20027;-60
2022/07/25 07:26:32;;;;;;;12.52;5.90;;;;;;;40.03;28.84;97588.72;5059334;28;20036;-63
2022/07/25 07:28:58;;;;;;;12.80;5.68;;;;;;;39.31;29.39;97583.47;5059527;28;20027;-63
2022/07/25 07:31:23;;;;;;;13.38;5.55;;;;;;;39.17;29.68;97585.00;5059006;28;20076;-61
2022/07/25 07:33:49;;;;;;;12.40;5.50;;;;;;;39.56;28.86;97573.91;5060181;28;20047;-61
2022/07/25 07:36:14;;;;;;;12.30;5.63;;;;;;;40.34;29.42;97581.56;5059286;28;20048;-61
2022/07/25 07:38:40;;;;;;;12.65;5.88;;;;;;;41.69;26.61;97580.81;5058859;28;20229;-60
2022/07/25 07:41:05;;;;;;;12.88;5.75;;;;;;;41.72;26.37;97581.06;5058916;28;20045;-61
2022/07/25 07:43:31;;;;;;;14.63;5.68;;;;;;;42.85;25.12;97572.53;5060214;28;20137;-60
2022/07/25 07:45:59;;;;;;;12.82;5.35;;;;;;;39.93;29.00;97562.19;5059441;28;20094;-61
2022/07/25 07:48:28;;;;;;;12.45;5.78;;;;;;;39.91;28.65;97567.09;5059244;28;20024;-60
2022/07/25 07:50:53;;;;;;;15.18;5.88;;;;;;;41.13;27.09;97568.69;5055764;28;20032;-60
2022/07/25 07:53:18;;;;;;;10.57;4.97;;;;;;;39.93;28.09;97556.72;5059353;28;20041;-62
2022/07/25 07:55:44;;;;;;;13.70;5.07;;;;;;;39.03;28.83;97559.22;5059124;28;20047;-60
2022/07/25 07:58:18;;;;;;;13.40;5.63;;;;;;;40.80;26.81;97559.06;5059705;28;20575;-62
2022/07/25 08:00:50;;;;;;;17.10;5.50;;;;;;;41.33;26.21;97567.13;5058104;28;20481;-62
2022/07/25 08:03:20;;;;;;;10.30;5.10;;;;;;;40.98;26.75;97555.00;5059647;28;20028;-60
2022/07/25 08:05:46;;;;;;;10.85;5.32;;;;;;;42.26;25.12;97554.97;5059586;28;20036;-61
2022/07/25 08:08:13;;;;;;;10.32;5.40;;;;;;;43.14;24.60;97547.13;5060083;28;20026;-62
2022/07/25 08:10:42;;;;;;;11.38;5.00;;;;;;;39.84;27.41;97558.28;5058965;28;20054;-61
2022/07/25 08:13:29;;;;;;;11.88;5.60;;;;;;;38.48;28.81;97548.22;5059989;28;20597;-61
2022/07/25 08:15:57;;;;;;;14.75;5.63;;;;;;;40.55;27.06;97551.56;5059599;28;20043;-60
2022/07/25 08:18:23;;;;;;;9.18;5.10;;;;;;;38.25;28.67;97543.88;5058988;28;20094;-60
2022/07/25 08:20:49;;;;;;;12.48;5.72;;;;;;;38.16;29.04;97546.19;5058133;28;20110;-61
2022/07/25 08:23:15;;;;;;;13.95;5.80;;;;;;;40.40;26.52;97542.25;5058647;28;20038;-60
2022/07/25 08:25:40;;;;;;;12.57;5.20;;;;;;;40.45;26.54;97536.78;5073581;28;20037;-63
2022/07/25 08:28:06;;;;;;;13.70;5.47;;;;;;;42.09;24.91;97535.28;5058585;28;20008;-60
2022/07/25 08:30:33;;;;;;;12.48;5.75;;;;;;;42.45;24.48;97537.91;5058360;28;20059;-60
2022/07/25 08:33:00;;;;;;;12.45;5.10;;;;;;;40.54;26.56;97528.91;5058764;28;20067;-61
2022/07/25 08:35:27;;;;;;;11.80;5.28;;;;;;;42.90;23.75;97525.09;5057661;28;20573;-61
2022/07/25 08:37:53;;;;;;;13.75;5.35;;;;;;;44.63;22.83;97519.03;5057793;28;20930;-60
2022/07/25 08:40:22;;;;;;;12.32;5.43;;;;;;;42.64;24.02;97519.72;5057519;28;20058;-63
2022/07/25 08:42:48;;;;;;;11.18;5.57;;;;;;;38.59;27.58;97518.41;5058877;28;20020;-60
2022/07/25 08:45:16;;;;;;;13.52;5.75;;;;;;;42.33;24.17;97522.63;5057953;28;20053;-63
2022/07/25 08:47:42;;;;;;;13.25;5.50;;;;;;;42.93;23.97;97527.25;5058651;28;20035;-60
2022/07/25 08:50:11;;;;;;;14.32;6.13;;;;;;;41.84;24.53;97512.34;5057327;28;20020;-59
2022/07/25 08:52:37;;;;;;;15.45;5.75;;;;;;;40.20;26.33;97506.59;5057946;28;20020;-60
2022/07/25 08:55:08;;;;;;;14.57;5.10;;;;;;;42.55;24.00;97511.31;5058226;28;20063;-59
2022/07/25 08:57:36;;;;;;;10.43;5.35;;;;;;;38.46;28.44;97505.97;5059234;28;20528;-60
2022/07/25 09:00:04;;;;;;;16.45;5.88;;;;;;;39.51;27.85;97506.47;5057282;28;20127;-60
2022/07/25 09:02:29;;;;;;;10.65;4.90;;;;;;;42.53;24.69;97493.47;5058712;28;20113;-61
2022/07/25 09:04:56;;;;;;;13.13;5.97;;;;;;;41.95;24.78;97497.50;5057647;28;20036;-60
2022/07/25 09:07:39;;;;;;;12.05;5.45;;;;;;;41.91;24.66;97482.75;5045025;28;20160;-60
2022/07/25 09:10:15;;;;;;;16.00;5.97;;;;;;;43.48;23.65;97478.53;5055304;28;20024;-61
2022/07/25 09:12:49;;;;;;;10.38;5.22;;;;;;;42.14;24.70;97478.56;5057618;28;20517;-62
2022/07/25 09:15:29;;;;;;;10.18;5.22;;;;;;;40.63;25.73;97478.09;5057438;28;20115;-60
2022/07/25 09:17:57;;;;;;;12.07;5.45;;;;;;;41.66;25.07;97469.94;5057824;28;20028;-61
2022/07/25 09:20:22;;;;;;;11.10;5.25;;;;;;;43.01;23.49;97474.53;5057480;28;20083;-61
2022/07/25 09:22:48;;;;;;;9.40;4.93;;;;;;;43.21;23.56;97461.75;5059291;28;20036;-60
2022/07/25 09:25:21;;;;;;;12.60;5.45;;;;;;;45.12;21.95;97478.41;5057348;28;20093;-61
2022/07/25 09:27:46;;;;;;;12.07;5.35;;;;;;;44.22;22.05;97455.50;5057357;28;20052;-61
2022/07/25 09:30:13;;;;;;;13.52;5.80;;;;;;;41.87;24.44;97443.31;5055221;28;20020;-59
2022/07/25 09:32:39;;;;;;;11.35;5.43;;;;;;;43.77;22.60;97447.50;5056865;28;20119;-61
2022/07/25 09:35:05;;;;;;;10.55;5.47;;;;;;;43.38;23.71;97439.38;5057540;28;20105;-58
2022/07/25 09:37:30;;;;;;;9.30;5.18;;;;;;;41.49;25.51;97440.13;5058168;28;20020;-62
2022/07/25 09:39:56;;;;;;;12.60;6.03;;;;;;;41.77;25.52;97435.16;5057725;28;20032;-60
2022/07/25 09:42:31;;;;;;;11.05;5.75;;;;;;;42.27;24.46;97443.44;5057939;28;20776;-60
2022/07/25 09:45:08;;;;;;;10.68;5.45;;;;;;;40.13;25.91;97435.84;5058639;28;20032;-60
2022/07/25 09:47:36;;;;;;;11.43;5.60;;;;;;;42.49;24.69;97432.09;5061047;28;20044;-60
2022/07/25 09:50:01;;;;;;;18.55;6.88;;;;;;;41.33;25.38;97435.78;5060709;28;20086;-60
2022/07/25 09:52:27;;;;;;;14.98;6.00;;;;;;;42.46;25.51;97435.38;5061481;28;20040;-60
2022/07/25 09:54:53;;;;;;;16.42;5.88;;;;;;;39.61;26.71;97428.47;5062639;28;20437;-60
2022/07/25 09:57:20;;;;;;;15.77;6.22;;;;;;;43.09;24.37;97421.00;5060492;28;20033;-60
2022/07/25 09:59:46;;;;;;;15.82;5.93;;;;;;;41.84;25.04;97423.88;5061774;28;20017;-60
2022/07/25 10:02:28;;;;;;;17.48;6.07;;;;;;;41.45;24.98;97421.78;5050631;28;20046;-61
2022/07/25 10:05:14;;;;;;;12.38;5.55;;;;;;;41.85;25.57;97420.88;5064833;28;20028;-60
2022/07/25 10:07:44;;;;;;;14.93;5.90;;;;;;;42.18;26.14;97415.81;5063447;28;20044;-61
2022/07/25 10:10:21;;;;;;;16.13;6.32;;;;;;;42.00;24.85;97409.03;5063026;28;20665;-60
2022/07/25 10:12:58;;;;;;;13.98;5.97;;;;;;;40.90;26.09;97418.81;5064117;28;20093;-62
2022/07/25 10:15:23;;;;;;;15.88;6.00;;;;;;;40.20;26.92;97409.13;5062117;28;20427;-63
2022/07/25 10:18:01;;;;;;;16.77;6.20;;;;;;;41.01;25.63;97398.59;5062317;28;20520;-61
2022/07/25 10:20:28;;;;;;;13.32;5.85;;;;;;;42.34;24.61;97398.19;5062510;28;21391;-62
2022/07/25 10:22:53;;;;;;;15.32;6.20;;;;;;;43.42;23.36;97400.09;5064632;28;20024;-63
2022/07/25 10:25:19;;;;;;;15.65;6.20;;;;;;;40.19;26.89;97398.44;5062875;28;20024;-61
2022/07/25 10:27:47;;;;;;;16.88;5.82;;;;;;;42.29;24.36;97392.72;5062882;28;20543;-61
2022/07/25 10:30:33;;;;;;;17.48;6.63;;;;;;;40.77;26.73;97396.38;5061012;28;20059;-60
2022/07/25 10:33:03;;;;;;;14.48;6.15;;;;;;;42.20;24.54;97372.50;5060546;28;20032;-61
2022/07/25 10:35:30;;;;;;;13.35;5.82;;;;;;;41.82;24.43;97380.38;5065038;28;20115;-63
2022/07/25 10:37:58;;;;;;;12.27;5.80;;;;;;;42.80;23.28;97371.56;5062592;28;20028;-63
2022/07/25 10:40:38;;;;;;;11.45;5.70;;;;;;;41.09;24.81;97381.63;5061902;28;20021;-63
2022/07/25 10:43:04;;;;;;;14.68;5.97;;;;;;;41.62;25.04;97370.28;5063437;28;20146;-60
2022/07/25 10:45:49;;;;;;;12.37;6.17;;;;;;;39.75;26.55;97374.25;5063189;28;20128;-62
2022/07/25 10:48:23;;;;;;;13.98;6.00;;;;;;;41.97;24.80;97357.56;5062962;28;20674;-61
2022/07/25 10:50:51;;;;;;;13.88;6.45;;;;;;;39.72;26.65;97361.94;5062031;28;20036;-61
2022/07/25 10:53:47;;;;;;;16.02;6.40;;;;;;;42.01;24.51;97352.34;5063201;28;20032;-61
2022/07/25 10:56:13;;;;;;;16.33;6.18;;;;;;;41.08;26.21;97362.75;5061003;28;20529;-61
2022/07/25 10:58:47;;;;;;;14.38;6.13;;;;;;;41.76;25.86;97351.34;5062310;28;20524;-61
2022/07/25 11:01:13;;;;;;;13.38;6.10;;;;;;;40.25;25.74;97350.94;5061624;28;20040;-61
2022/07/25 11:03:43;;;;;;;17.15;6.15;;;;;;;41.06;25.71;97352.06;5062166;28;20038;-61
2022/07/25 11:06:09;;;;;;;14.85;5.97;;;;;;;41.21;25.82;97352.09;5062324;28;20112;-61
2022/07/25 11:08:35;;;;;;;14.73;6.18;;;;;;;40.80;26.16;97352.09;5062059;28;20029;-61
2022/07/25 11:11:01;;;;;;;13.40;5.53;;;;;;;41.70;25.87;97347.81;5061819;28;20047;-61
2022/07/25 11:13:26;;;;;;;13.30;5.93;;;;;;;38.90;27.18;97339.63;5062691;28;20329;-61
2022/07/25 11:15:57;;;;;;;13.98;6.07;;;;;;;40.20;26.68;97338.09;5063072;28;20405;-62